Skull Valley, Arizona
Current Conditions -  °F | °C
As of 1:53 AM on Saturday 20 Dec 2014 (Local Time) from KPRC Reporting Station
Clear Clear  
Wind Chill: 35°   Ceiling: Unl
Heat Index: 35°   Visibility: 10mi
Dew Point: 27°   Wind: 0mph
Humidity: 72%   Direction: NA
Pressure: 30.17"   Gusts: NA
Location:  34.51°N, 112.69°W
Report Text: KPRC 200853Z 00000KT 10SM CLR 02/M03 A3017 RMK AO2 SLP195 T00171028 55004
Loading
Personal Weather Stations






























Interactive Weather Map New forecast layout! Learn more

10-Day Weather Forecast

Advertisements
Track Severe Weather on mobile